createdAt,value
2023-03-29T00:01:34.923Z,34.60
2023-03-29T00:06:36.016Z,35.33
2023-03-29T00:11:37.424Z,35.15
2023-03-29T00:16:39.281Z,33.00
2023-03-29T00:21:40.884Z,35.40
2023-03-29T00:26:42.443Z,45.22
2023-03-29T00:31:53.667Z,38.22
2023-03-29T00:36:57.891Z,39.67
2023-03-29T00:41:59.458Z,33.78
2023-03-29T00:47:00.983Z,33.80
2023-03-29T00:52:03.481Z,31.00
2023-03-29T00:57:06.940Z,27.45
2023-03-29T01:02:09.356Z,36.88
2023-03-29T01:07:41.324Z,55.60
2023-03-29T01:12:51.330Z,61.80
2023-03-29T01:17:53.909Z,70.05
2023-03-29T01:23:32.957Z,77.65
2023-03-29T01:28:43.104Z,80.90
2023-03-29T01:33:50.404Z,49.63
2023-03-29T01:39:04.957Z,67.75
2023-03-29T01:44:13.412Z,53.15
2023-03-29T01:49:22.519Z,37.90
2023-03-29T01:54:38.342Z,34.30
2023-03-29T01:59:43.773Z,34.55
2023-03-29T02:04:50.218Z,27.98
2023-03-29T02:09:53.665Z,34.28
2023-03-29T02:14:57.976Z,33.13
2023-03-29T02:20:14.927Z,30.25
2023-03-29T02:25:17.508Z,31.15
2023-03-29T02:30:21.041Z,31.85
2023-03-29T02:35:34.548Z,35.85
2023-03-29T02:40:38.125Z,37.85
2023-03-29T02:45:41.193Z,56.08
2023-03-29T02:50:45.981Z,55.08
2023-03-29T02:55:47.476Z,39.83
2023-03-29T03:00:49.332Z,34.75
2023-03-29T03:05:52.424Z,35.40
2023-03-29T03:10:54.177Z,31.27
2023-03-29T03:15:56.177Z,33.40
2023-03-29T03:21:04.716Z,25.88
2023-03-29T03:26:06.305Z,23.23
2023-03-29T03:31:07.901Z,25.60
2023-03-29T03:36:11.279Z,26.33
2023-03-29T03:41:13.297Z,31.48
2023-03-29T03:46:16.464Z,29.35
2023-03-29T03:51:18.398Z,26.40
2023-03-29T03:56:20.522Z,25.55
2023-03-29T04:01:21.999Z,27.00
2023-03-29T04:06:23.434Z,29.35
2023-03-29T04:11:25.649Z,26.98
2023-03-29T04:16:28.435Z,26.33
2023-03-29T04:21:29.886Z,33.58
2023-03-29T04:26:31.365Z,42.90
2023-03-29T04:31:32.916Z,35.47
2023-03-29T04:36:34.529Z,28.92
2023-03-29T04:41:35.992Z,30.30
2023-03-29T04:46:40.151Z,25.50
2023-03-29T04:51:41.746Z,21.90
2023-03-29T04:56:43.250Z,21.15
2023-03-29T05:01:45.121Z,20.20
2023-03-29T05:06:47.220Z,19.98
2023-03-29T05:11:49.148Z,20.95
2023-03-29T05:16:50.634Z,20.60
2023-03-29T05:21:53.097Z,22.00
2023-03-29T05:26:54.608Z,20.77
2023-03-29T05:31:56.104Z,24.38
2023-03-29T05:36:59.028Z,23.52
2023-03-29T05:42:00.869Z,18.13
2023-03-29T05:47:02.362Z,19.65
2023-03-29T05:52:03.988Z,19.35
2023-03-29T05:57:06.183Z,20.40
2023-03-29T06:02:07.833Z,16.38
2023-03-29T06:07:10.377Z,22.00
2023-03-29T06:12:12.288Z,16.67
2023-03-29T06:17:13.859Z,19.63
2023-03-29T06:22:15.355Z,13.82
2023-03-29T06:27:16.811Z,14.75
2023-03-29T06:32:18.532Z,17.13
2023-03-29T06:37:21.496Z,15.10
2023-03-29T06:42:23.165Z,15.63
2023-03-29T06:47:30.947Z,18.77
2023-03-29T06:52:32.478Z,16.42
2023-03-29T06:57:34.181Z,20.38
2023-03-29T07:02:35.849Z,20.92
2023-03-29T07:07:55.094Z,11.43
2023-03-29T07:12:56.495Z,16.38
2023-03-29T07:17:58.159Z,10.50
2023-03-29T07:23:00.589Z,13.95
2023-03-29T07:28:02.888Z,11.82
2023-03-29T07:33:04.751Z,13.60
2023-03-29T07:38:08.212Z,10.20
2023-03-29T07:43:10.995Z,14.00
2023-03-29T07:48:13.159Z,10.20
2023-03-29T07:53:14.615Z,12.57
2023-03-29T07:58:16.333Z,11.43
2023-03-29T08:03:17.871Z,8.65
2023-03-29T08:08:19.419Z,8.02
2023-03-29T08:13:20.895Z,9.10
2023-03-29T08:18:22.367Z,8.05
2023-03-29T08:23:23.826Z,11.18
2023-03-29T08:28:25.266Z,8.73
2023-03-29T08:33:26.691Z,8.40
2023-03-29T08:38:28.784Z,9.73
2023-03-29T08:43:58.257Z,9.20
2023-03-29T08:49:03.994Z,6.10
2023-03-29T08:54:12.467Z,6.93
2023-03-29T08:59:28.252Z,6.20
2023-03-29T09:04:36.568Z,9.98
2023-03-29T09:09:38.357Z,7.85
2023-03-29T09:14:54.302Z,5.47
2023-03-29T09:20:37.818Z,6.60
2023-03-29T09:26:00.894Z,8.98
2023-03-29T09:31:26.720Z,7.00
2023-03-29T09:36:52.623Z,6.30
2023-03-29T09:42:08.051Z,11.32
2023-03-29T09:47:22.060Z,6.53
2023-03-29T09:52:23.581Z,9.90
2023-03-29T09:57:26.069Z,9.52
2023-03-29T10:02:31.425Z,8.98
2023-03-29T10:07:41.288Z,9.25
2023-03-29T10:12:50.293Z,7.22
2023-03-29T10:17:58.924Z,11.32
2023-03-29T10:23:00.750Z,5.75
2023-03-29T10:28:15.824Z,9.93
2023-03-29T10:33:21.111Z,8.88
2023-03-29T10:38:27.866Z,11.63
2023-03-29T10:43:37.293Z,6.82
2023-03-29T10:48:40.701Z,6.47
2023-03-29T10:53:42.326Z,8.15
2023-03-29T10:58:55.949Z,7.30
2023-03-29T11:04:31.355Z,6.97
2023-03-29T11:09:43.567Z,17.63
2023-03-29T11:15:00.404Z,8.55
2023-03-29T11:20:19.523Z,7.55
2023-03-29T11:26:06.069Z,7.60
2023-03-29T11:31:38.382Z,8.50
2023-03-29T11:37:02.618Z,7.07
2023-03-29T11:42:24.261Z,7.53
2023-03-29T11:47:30.596Z,7.80
2023-03-29T11:52:44.511Z,6.47
2023-03-29T11:58:22.379Z,9.75
2023-03-29T12:03:44.745Z,7.78
2023-03-29T12:09:01.226Z,7.38
2023-03-29T12:14:14.147Z,7.97
2023-03-29T12:19:33.110Z,10.18
2023-03-29T12:24:38.918Z,6.95
2023-03-29T12:29:46.597Z,5.88
2023-03-29T12:34:59.731Z,8.10
2023-03-29T12:40:28.439Z,11.50
2023-03-29T12:45:37.588Z,9.35
2023-03-29T12:50:54.284Z,6.28
2023-03-29T12:56:21.696Z,7.25
2023-03-29T13:01:31.146Z,6.78
2023-03-29T13:07:03.436Z,7.10
2023-03-29T13:12:13.030Z,6.72
2023-03-29T13:17:26.828Z,5.30
2023-03-29T13:22:37.133Z,11.02
2023-03-29T13:27:59.726Z,8.43
2023-03-29T13:33:33.715Z,5.35
2023-03-29T13:38:46.281Z,5.75
2023-03-29T13:43:51.776Z,9.27
2023-03-29T13:48:58.801Z,7.38
2023-03-29T13:54:13.572Z,9.20
2023-03-29T13:59:20.662Z,12.93
2023-03-29T14:04:26.619Z,7.78
2023-03-29T14:09:31.555Z,6.75
2023-03-29T14:14:33.175Z,8.98
2023-03-29T14:19:37.565Z,14.73
2023-03-29T14:24:44.965Z,12.55
2023-03-29T14:29:49.197Z,8.55
2023-03-29T14:34:50.944Z,6.25
2023-03-29T14:39:53.364Z,7.18
2023-03-29T14:45:06.458Z,8.75
2023-03-29T14:50:19.450Z,9.43
2023-03-29T14:55:23.919Z,9.00
2023-03-29T15:00:38.520Z,9.73
2023-03-29T15:05:48.561Z,6.38
2023-03-29T15:10:50.281Z,6.93
2023-03-29T15:15:58.958Z,6.63
2023-03-29T15:21:01.934Z,6.82
2023-03-29T15:26:14.060Z,6.90
2023-03-29T15:31:19.548Z,6.70
2023-03-29T15:36:21.053Z,6.80
2023-03-29T15:41:22.990Z,9.55
2023-03-29T15:46:24.496Z,6.07
2023-03-29T15:51:26.097Z,5.13
2023-03-29T15:56:27.617Z,9.65
2023-03-29T16:01:34.359Z,8.27
2023-03-29T16:06:36.201Z,11.85
2023-03-29T16:11:39.239Z,9.10
2023-03-29T16:16:40.780Z,7.30
2023-03-29T16:21:43.127Z,9.02
2023-03-29T16:26:44.599Z,6.15
2023-03-29T16:31:48.228Z,6.25
2023-03-29T16:36:50.720Z,11.55
2023-03-29T16:41:52.187Z,8.93
2023-03-29T16:46:54.214Z,5.80
2023-03-29T16:51:56.077Z,9.45
2023-03-29T16:56:57.855Z,9.77
2023-03-29T17:01:59.406Z,12.45
2023-03-29T17:07:01.585Z,10.98
2023-03-29T17:12:03.083Z,19.33
2023-03-29T17:17:05.014Z,11.35
2023-03-29T17:22:06.591Z,13.77
2023-03-29T17:27:08.066Z,12.90
2023-03-29T17:32:09.649Z,10.82
2023-03-29T17:37:11.114Z,7.78
2023-03-29T17:42:12.703Z,11.40
2023-03-29T17:47:14.113Z,10.98
2023-03-29T17:52:15.617Z,16.60
2023-03-29T17:57:17.243Z,15.00
2023-03-29T18:02:21.938Z,15.95
2023-03-29T18:07:23.557Z,13.23
2023-03-29T18:12:26.132Z,20.75
2023-03-29T18:17:27.767Z,16.73
2023-03-29T18:22:29.245Z,20.05
2023-03-29T18:27:30.833Z,15.15
2023-03-29T18:32:32.633Z,19.35
2023-03-29T18:37:34.241Z,22.25
2023-03-29T18:42:35.888Z,24.40
2023-03-29T18:47:37.496Z,20.55
2023-03-29T18:52:39.091Z,21.42
2023-03-29T18:57:40.953Z,32.85
2023-03-29T19:02:42.422Z,20.83
2023-03-29T19:07:44.032Z,29.35
2023-03-29T19:12:45.450Z,30.35
2023-03-29T19:17:46.976Z,33.83
2023-03-29T19:22:48.407Z,30.80
2023-03-29T19:27:50.305Z,25.98
2023-03-29T19:32:52.225Z,43.85
2023-03-29T19:37:53.687Z,32.85
2023-03-29T19:42:55.119Z,28.67
2023-03-29T19:47:57.717Z,39.28
2023-03-29T19:52:59.257Z,30.65
2023-03-29T19:58:01.003Z,24.77
2023-03-29T20:03:03.019Z,27.65
2023-03-29T20:08:04.684Z,33.33
2023-03-29T20:13:06.887Z,27.88
2023-03-29T20:18:08.515Z,21.30
2023-03-29T20:23:10.963Z,19.70
2023-03-29T20:28:12.744Z,16.38
2023-03-29T20:33:14.227Z,16.60
2023-03-29T20:38:16.133Z,13.45
2023-03-29T20:43:20.547Z,15.70
2023-03-29T20:48:24.278Z,15.45
2023-03-29T20:53:34.158Z,17.98
2023-03-29T20:58:35.577Z,18.80
2023-03-29T21:03:37.417Z,17.10
2023-03-29T21:08:39.066Z,13.50
2023-03-29T21:13:41.501Z,14.23
2023-03-29T21:18:43.510Z,11.05
2023-03-29T21:23:44.942Z,14.73
2023-03-29T21:28:48.501Z,12.70
2023-03-29T21:33:50.223Z,14.63
2023-03-29T21:38:51.877Z,17.88
2023-03-29T21:43:53.319Z,12.68
2023-03-29T21:48:54.859Z,16.58
2023-03-29T21:53:56.347Z,19.42
2023-03-29T21:58:57.764Z,14.75
2023-03-29T22:03:59.186Z,16.92
2023-03-29T22:09:00.820Z,18.35
2023-03-29T22:14:02.268Z,13.20
2023-03-29T22:19:04.330Z,12.93
2023-03-29T22:24:06.101Z,14.82
2023-03-29T22:29:07.531Z,15.32
2023-03-29T22:34:09.034Z,13.23
2023-03-29T22:39:11.259Z,11.85
2023-03-29T22:44:12.755Z,12.65
2023-03-29T22:49:14.226Z,15.18
2023-03-29T22:54:15.714Z,15.13
2023-03-29T22:59:17.133Z,14.88
2023-03-29T23:04:18.625Z,13.52
2023-03-29T23:09:20.097Z,13.38
2023-03-29T23:14:23.089Z,13.07
2023-03-29T23:19:24.535Z,15.57
2023-03-29T23:24:25.953Z,13.13
2023-03-29T23:29:27.487Z,15.05
2023-03-29T23:34:28.889Z,15.40
2023-03-29T23:39:30.696Z,13.70
2023-03-29T23:44:32.136Z,14.30
2023-03-29T23:49:33.952Z,14.00
2023-03-29T23:54:35.369Z,15.82
2023-03-29T23:59:37.814Z,13.63
